createdAt,value
2019-01-28T00:03:11.688Z,81.31
2019-01-28T00:31:49.156Z,81.36
2019-01-28T01:00:28.083Z,81.35
2019-01-28T01:29:06.562Z,81.33
2019-01-28T01:57:43.983Z,81.18
2019-01-28T02:26:21.796Z,81.3
2019-01-28T02:54:57.682Z,81.24
2019-01-28T03:23:36.051Z,80.01
2019-01-28T03:52:11.426Z,80.82
2019-01-28T04:20:48.347Z,81.42
2019-01-28T04:49:24.757Z,81.63
2019-01-28T05:18:02.923Z,80.92
2019-01-28T05:46:42.461Z,80.77
2019-01-28T06:15:20.338Z,81.14
2019-01-28T06:43:58.954Z,81.25
2019-01-28T07:12:36.408Z,81.28
2019-01-28T07:41:17.599Z,80.87
2019-01-28T08:09:54.422Z,80.11
2019-01-28T08:38:31.116Z,78.96
2019-01-28T09:07:13.669Z,77.49
2019-01-28T09:35:54.468Z,76.68
2019-01-28T10:04:32.035Z,75.23
2019-01-28T10:33:09.226Z,75.13
2019-01-28T11:01:50.868Z,75.26
2019-01-28T11:30:26.880Z,73.18
2019-01-28T11:59:05.707Z,72.03
2019-01-28T12:27:41.119Z,70.37
2019-01-28T12:56:21.942Z,70.68
2019-01-28T13:25:00.352Z,68.1
2019-01-28T13:53:33.100Z,68.52
2019-01-28T14:22:03.717Z,70.1
2019-01-28T14:50:41.073Z,71.21
2019-01-28T15:19:17.556Z,72.62
2019-01-28T15:47:53.031Z,78.28
2019-01-28T16:16:29.860Z,79.3
2019-01-28T16:45:06.962Z,81.86
2019-01-28T17:13:43.468Z,82.17
2019-01-28T17:42:38.705Z,82.98
2019-01-28T18:10:41.339Z,82.9
2019-01-28T18:39:19.545Z,81.89
2019-01-28T19:07:56.398Z,82.2
2019-01-28T19:36:34.847Z,82.26
2019-01-28T20:05:12.724Z,82.69
2019-01-28T20:33:49.688Z,82.6
2019-01-28T21:02:26.997Z,81.47
2019-01-28T21:31:03.814Z,80.89
2019-01-28T21:59:41.451Z,80.14
2019-01-28T22:28:14.562Z,80.8
2019-01-28T22:56:52.005Z,82.42
2019-01-28T23:25:27.482Z,82.87
2019-01-28T23:54:06.165Z,82.25
